Time;durP1;ratioP1;P1;durP2;ratioP2;P2;SDS_P1;SDS_P2;PMS_P1;PMS_P2;Temp;Humidity;BMP_temperature;BMP_pressure;BME280_temperature;BME280_humidity;BME280_pressure;Samples;Min_cycle;Max_cycle;Signal;HPM_P1;HPM_P2
2022/09/24 00:02:00;;;;;;;23.70;21.08;;;16.50;97.00;;;;;;5076841;28;20031;-73
2022/09/24 00:04:26;;;;;;;23.55;19.52;;;16.50;97.00;;;;;;5077132;28;20013;-72
2022/09/24 00:06:55;;;;;;;23.60;19.95;;;16.50;96.90;;;;;;5076704;28;20033;-72
2022/09/24 00:09:21;;;;;;;22.88;19.40;;;16.50;96.90;;;;;;5076814;28;20028;-72
2022/09/24 00:11:48;;;;;;;23.55;19.05;;;16.50;96.90;;;;;;5076870;28;20025;-72
2022/09/24 00:14:15;;;;;;;23.60;20.35;;;16.50;96.90;;;;;;5076670;28;20082;-72
2022/09/24 00:16:43;;;;;;;20.70;17.27;;;16.40;96.90;;;;;;5076582;28;20107;-72
2022/09/24 00:19:09;;;;;;;23.75;19.73;;;16.40;96.90;;;;;;5076692;28;20024;-72
2022/09/24 00:21:36;;;;;;;22.15;19.50;;;16.40;97.10;;;;;;5076239;28;20052;-72
2022/09/24 00:24:05;;;;;;;22.13;17.98;;;16.40;97.00;;;;;;5076509;28;20025;-73
2022/09/24 00:26:49;;;;;;;20.88;17.75;;;16.40;97.30;;;;;;5076444;28;20443;-74
2022/09/24 00:29:19;;;;;;;23.45;19.42;;;16.40;97.00;;;;;;5076438;28;20182;-73
2022/09/24 00:31:45;;;;;;;23.95;19.48;;;16.40;97.00;;;;;;5076315;28;20024;-73
2022/09/24 00:34:11;;;;;;;27.17;21.17;;;16.40;97.10;;;;;;5076366;28;20058;-73
2022/09/24 00:36:36;;;;;;;20.50;17.40;;;16.40;97.10;;;;;;5076229;28;20027;-73
2022/09/24 00:39:03;;;;;;;22.65;17.75;;;16.40;97.10;;;;;;5076100;28;20056;-73
2022/09/24 00:41:32;;;;;;;20.67;17.35;;;16.40;97.00;;;;;;5076036;28;20024;-73
2022/09/24 00:43:58;;;;;;;21.58;18.38;;;16.40;97.10;;;;;;5076094;28;20397;-73
2022/09/24 00:46:26;;;;;;;19.40;16.60;;;16.50;97.00;;;;;;5076022;28;20098;-73
2022/09/24 00:48:59;;;;;;;22.00;18.73;;;16.50;97.00;;;;;;5076055;28;20103;-73
2022/09/24 00:51:29;;;;;;;23.38;19.30;;;16.50;96.90;;;;;;5076076;28;20104;-73
2022/09/24 00:54:00;;;;;;;20.38;17.80;;;16.60;96.90;;;;;;5076107;28;20103;-73
2022/09/24 00:56:27;;;;;;;23.80;19.85;;;16.60;96.90;;;;;;5075039;28;20028;-73
2022/09/24 00:58:56;;;;;;;23.65;19.35;;;16.50;96.90;;;;;;5075634;28;20024;-73
2022/09/24 01:01:23;;;;;;;22.42;18.52;;;16.50;96.90;;;;;;5075668;28;20476;-73
2022/09/24 01:03:51;;;;;;;24.45;20.10;;;16.50;97.00;;;;;;5076026;28;20028;-73
2022/09/24 01:06:17;;;;;;;24.57;20.57;;;16.60;96.90;;;;;;5075880;28;20074;-73
2022/09/24 01:08:44;;;;;;;21.90;19.35;;;16.50;96.90;;;;;;5075329;28;20020;-74
2022/09/24 01:11:23;;;;;;;24.02;19.23;;;16.50;97.00;;;;;;5075745;28;20099;-73
2022/09/24 01:14:13;;;;;;;27.70;22.52;;;16.50;97.00;;;;;;5075830;28;20036;-73
2022/09/24 01:17:06;;;;;;;24.70;20.20;;;16.50;97.00;;;;;;5075463;28;20490;-73
2022/09/24 01:19:50;;;;;;;24.13;20.20;;;16.50;97.00;;;;;;5075640;28;20111;-73
2022/09/24 01:22:47;;;;;;;23.35;18.88;;;16.50;97.00;;;;;;5075743;28;20392;-73
2022/09/24 01:25:12;;;;;;;22.83;19.02;;;16.60;97.00;;;;;;5075363;28;20028;-73
2022/09/24 01:27:41;;;;;;;23.38;19.33;;;16.60;96.90;;;;;;5074975;28;20040;-73
2022/09/24 01:30:14;;;;;;;25.20;21.30;;;16.60;96.90;;;;;;5075176;28;20461;-72
2022/09/24 01:32:49;;;;;;;25.40;20.55;;;16.60;97.00;;;;;;5075273;28;20032;-72
2022/09/24 01:35:33;;;;;;;25.02;21.92;;;16.60;97.00;;;;;;5075059;28;20465;-72
2022/09/24 01:38:08;;;;;;;24.42;20.60;;;16.50;96.90;;;;;;5075013;28;20487;-72
2022/09/24 01:40:35;;;;;;;22.40;19.23;;;16.50;96.90;;;;;;5075105;28;20028;-73
2022/09/24 01:43:04;;;;;;;23.80;20.40;;;16.50;96.90;;;;;;5075210;28;20028;-71
2022/09/24 01:45:31;;;;;;;28.40;22.33;;;16.50;96.90;;;;;;5074919;28;20485;-71
2022/09/24 01:48:02;;;;;;;27.63;22.42;;;16.50;96.90;;;;;;5074546;28;20039;-72
2022/09/24 01:50:36;;;;;;;29.48;24.17;;;16.50;96.90;;;;;;5074858;28;20021;-72
2022/09/24 01:53:18;;;;;;;23.77;21.20;;;16.50;96.90;;;;;;5074756;28;20107;-72
2022/09/24 01:55:51;;;;;;;23.48;18.92;;;16.50;96.90;;;;;;5074983;28;20032;-72
2022/09/24 01:58:34;;;;;;;27.95;21.02;;;16.50;96.90;;;;;;5074807;28;20421;-72
2022/09/24 02:01:06;;;;;;;28.58;23.30;;;16.50;96.90;;;;;;5074587;28;20543;-72
2022/09/24 02:03:38;;;;;;;26.05;20.52;;;16.50;96.90;;;;;;5074179;28;20472;-72
2022/09/24 02:06:11;;;;;;;26.92;22.67;;;16.50;96.90;;;;;;5074011;28;20146;-72
2022/09/24 02:08:39;;;;;;;27.75;22.27;;;16.50;97.00;;;;;;5074002;28;20419;-73
2022/09/24 02:11:10;;;;;;;27.08;23.23;;;16.40;97.00;;;;;;5074398;28;20029;-73
2022/09/24 02:14:05;;;;;;;27.45;23.27;;;16.40;97.00;;;;;;5074136;28;20028;-73
2022/09/24 02:16:46;;;;;;;26.40;21.58;;;16.40;97.00;;;;;;5074481;28;20133;-73
2022/09/24 02:19:34;;;;;;;25.27;21.50;;;16.40;97.10;;;;;;5074340;28;20032;-73
2022/09/24 02:22:00;;;;;;;23.70;20.42;;;16.40;97.10;;;;;;5074362;28;20091;-73
2022/09/24 02:24:35;;;;;;;26.15;21.67;;;16.30;97.00;;;;;;5074134;28;20175;-74
2022/09/24 02:27:00;;;;;;;25.52;20.80;;;16.30;97.00;;;;;;5074405;28;20025;-74
2022/09/24 02:29:26;;;;;;;24.63;20.30;;;16.30;97.00;;;;;;5073911;28;20056;-73
2022/09/24 02:31:55;;;;;;;26.27;21.95;;;16.20;97.10;;;;;;5074064;28;20352;-73
2022/09/24 02:34:33;;;;;;;25.90;19.98;;;16.30;97.20;;;;;;5073691;28;20127;-73
2022/09/24 02:37:11;;;;;;;26.27;21.38;;;16.20;97.20;;;;;;5074285;28;20025;-73
2022/09/24 02:39:37;;;;;;;22.98;19.48;;;16.20;97.10;;;;;;5072751;28;20029;-72
2022/09/24 02:42:04;;;;;;;24.10;19.88;;;16.20;97.10;;;;;;5074123;28;20111;-72
2022/09/24 02:44:31;;;;;;;26.00;20.48;;;16.20;97.10;;;;;;5073768;28;20020;-72
2022/09/24 02:46:57;;;;;;;22.08;18.15;;;16.20;97.00;;;;;;5073720;28;20037;-72
2022/09/24 02:49:22;;;;;;;20.13;17.33;;;16.20;97.10;;;;;;5073696;28;20021;-72
2022/09/24 02:51:48;;;;;;;22.63;18.77;;;16.20;97.10;;;;;;5074095;28;20024;-72
2022/09/24 02:54:14;;;;;;;18.38;15.63;;;16.20;97.00;;;;;;5073535;28;20415;-72
2022/09/24 02:56:40;;;;;;;19.98;16.83;;;16.20;97.00;;;;;;5073547;28;20056;-73
2022/09/24 02:59:06;;;;;;;21.58;18.35;;;16.20;97.00;;;;;;5073274;28;20025;-72
2022/09/24 03:01:33;;;;;;;20.48;17.33;;;16.20;97.00;;;;;;5073770;28;20036;-73
2022/09/24 03:03:59;;;;;;;19.52;16.08;;;16.20;96.90;;;;;;5073741;28;20086;-73
2022/09/24 03:06:25;;;;;;;17.23;15.32;;;16.20;97.20;;;;;;5073748;28;20032;-73
2022/09/24 03:08:52;;;;;;;18.15;14.73;;;16.20;96.90;;;;;;5073692;28;20397;-73
2022/09/24 03:11:20;;;;;;;17.33;14.82;;;16.20;96.90;;;;;;5073480;28;20029;-73
2022/09/24 03:13:46;;;;;;;17.10;15.27;;;16.20;96.80;;;;;;5073600;28;20056;-73
2022/09/24 03:16:13;;;;;;;19.45;16.20;;;16.20;96.80;;;;;;5073542;28;20361;-73
2022/09/24 03:18:38;;;;;;;16.98;14.88;;;16.20;96.80;;;;;;5072984;28;20021;-73
2022/09/24 03:21:09;;;;;;;18.58;14.32;;;16.20;96.80;;;;;;5071988;28;20115;-73
2022/09/24 03:23:36;;;;;;;17.63;13.65;;;16.30;96.90;;;;;;5073467;28;20028;-73
2022/09/24 03:26:02;;;;;;;17.33;14.35;;;16.30;96.80;;;;;;5073229;28;20036;-73
2022/09/24 03:28:27;;;;;;;19.02;15.07;;;16.30;96.80;;;;;;5072991;28;20044;-73
2022/09/24 03:30:59;;;;;;;20.02;14.35;;;16.30;96.80;;;;;;5073338;28;20471;-73
2022/09/24 03:33:26;;;;;;;16.58;14.52;;;16.30;96.80;;;;;;5073379;28;20104;-73
2022/09/24 03:36:24;;;;;;;15.77;13.43;;;16.40;96.90;;;;;;5073024;28;20046;-73
2022/09/24 03:38:56;;;;;;;17.70;13.68;;;16.30;96.80;;;;;;5073010;28;20408;-73
2022/09/24 03:41:24;;;;;;;15.30;12.30;;;16.40;96.80;;;;;;5073083;28;20464;-73
2022/09/24 03:43:49;;;;;;;15.15;13.20;;;16.30;96.70;;;;;;5073021;28;20082;-73
2022/09/24 03:46:16;;;;;;;14.45;12.40;;;16.40;96.60;;;;;;5073249;28;20020;-73
2022/09/24 03:48:42;;;;;;;15.90;13.40;;;16.40;96.60;;;;;;5073225;28;20119;-73
2022/09/24 03:51:14;;;;;;;16.38;14.18;;;16.40;96.60;;;;;;5071607;28;20024;-73
2022/09/24 03:53:39;;;;;;;16.23;14.07;;;16.40;96.60;;;;;;5073274;28;20131;-73
2022/09/24 03:56:06;;;;;;;15.98;13.63;;;16.40;96.60;;;;;;5072790;28;20063;-73
2022/09/24 03:58:35;;;;;;;16.30;13.85;;;16.40;96.60;;;;;;5073036;28;20047;-73
2022/09/24 04:01:01;;;;;;;16.38;14.00;;;16.30;96.60;;;;;;5072775;28;20522;-73
2022/09/24 04:03:26;;;;;;;14.23;12.23;;;16.40;96.70;;;;;;5072845;28;20052;-73
2022/09/24 04:05:52;;;;;;;15.02;13.40;;;16.40;96.70;;;;;;5072716;28;20103;-73
2022/09/24 04:08:22;;;;;;;12.55;11.25;;;16.40;96.70;;;;;;5072457;28;20402;-73
2022/09/24 04:10:48;;;;;;;14.27;12.57;;;16.40;96.70;;;;;;5072779;28;20029;-73
2022/09/24 04:13:15;;;;;;;14.77;12.45;;;16.40;96.70;;;;;;5072757;28;20029;-73
2022/09/24 04:15:40;;;;;;;15.10;13.50;;;16.40;96.70;;;;;;5072673;28;20039;-73
2022/09/24 04:18:06;;;;;;;15.18;13.30;;;16.40;96.60;;;;;;5072490;28;20025;-73
2022/09/24 04:20:33;;;;;;;13.85;12.40;;;16.40;96.70;;;;;;5072562;28;20035;-73
2022/09/24 04:22:59;;;;;;;16.85;13.73;;;16.40;96.70;;;;;;5072758;28;20104;-73
2022/09/24 04:25:27;;;;;;;17.23;13.90;;;16.40;96.70;;;;;;5072915;28;20023;-73
2022/09/24 04:27:55;;;;;;;15.32;13.68;;;16.30;96.80;;;;;;5072510;28;20079;-73
2022/09/24 04:30:22;;;;;;;15.68;13.75;;;16.30;96.80;;;;;;5074684;28;20024;-73
2022/09/24 04:32:49;;;;;;;16.55;14.65;;;16.30;97.00;;;;;;5076027;28;20028;-73
2022/09/24 04:35:14;;;;;;;14.23;11.65;;;16.30;96.90;;;;;;5076562;28;20021;-73
2022/09/24 04:37:41;;;;;;;17.55;14.38;;;16.20;96.90;;;;;;5076155;28;20036;-73
2022/09/24 04:40:09;;;;;;;17.50;14.23;;;16.20;97.00;;;;;;5076344;28;20069;-73
2022/09/24 04:42:34;;;;;;;17.45;15.52;;;16.10;97.00;;;;;;5076089;28;20029;-73
2022/09/24 04:45:01;;;;;;;15.20;13.40;;;16.10;97.10;;;;;;5076315;28;20029;-73
2022/09/24 04:47:26;;;;;;;17.58;14.23;;;16.10;97.10;;;;;;5076157;28;20040;-72
2022/09/24 04:49:52;;;;;;;14.77;13.10;;;16.10;97.10;;;;;;5076066;28;20025;-74
2022/09/24 04:52:18;;;;;;;17.05;14.57;;;16.10;97.20;;;;;;5076210;28;20039;-72
2022/09/24 04:54:46;;;;;;;16.92;14.93;;;16.00;97.30;;;;;;5075930;28;20473;-72
2022/09/24 04:57:15;;;;;;;16.25;13.48;;;16.00;97.40;;;;;;5076200;28;20083;-72
2022/09/24 04:59:43;;;;;;;16.70;14.07;;;16.00;97.40;;;;;;5076124;28;20028;-72
2022/09/24 05:02:09;;;;;;;15.73;13.82;;;16.10;97.40;;;;;;5075946;28;20017;-72
2022/09/24 05:04:35;;;;;;;21.45;14.52;;;16.10;97.30;;;;;;5075763;28;20078;-72
2022/09/24 05:07:01;;;;;;;19.52;14.52;;;16.10;97.30;;;;;;5075726;28;20051;-72
2022/09/24 05:09:26;;;;;;;18.35;15.07;;;16.10;97.50;;;;;;5075899;28;20020;-72
2022/09/24 05:11:52;;;;;;;16.30;13.75;;;16.10;97.30;;;;;;5075740;28;20353;-72
2022/09/24 05:14:18;;;;;;;19.83;15.45;;;16.00;97.40;;;;;;5075549;28;20052;-72
2022/09/24 05:16:43;;;;;;;18.63;14.80;;;16.00;97.30;;;;;;5075166;28;20073;-73
2022/09/24 05:19:09;;;;;;;17.08;14.05;;;16.00;97.30;;;;;;5075696;28;20099;-73
2022/09/24 05:21:34;;;;;;;18.73;15.20;;;16.00;97.30;;;;;;5075469;28;20036;-73
2022/09/24 05:24:00;;;;;;;17.77;14.40;;;16.00;97.30;;;;;;5075369;28;20028;-72
2022/09/24 05:29:10;;;;;;;18.42;14.32;;;16.00;97.40;;;;;;5074941;28;20055;-72
2022/09/24 05:31:35;;;;;;;18.23;13.40;;;16.10;97.40;;;;;;5075484;28;20372;-72
2022/09/24 05:34:02;;;;;;;17.75;14.60;;;16.10;97.40;;;;;;5075154;28;20029;-73
2022/09/24 05:36:28;;;;;;;19.27;14.15;;;16.10;97.40;;;;;;5075060;28;20031;-72
2022/09/24 05:38:54;;;;;;;18.33;15.50;;;16.10;97.30;;;;;;5075326;28;20020;-73
2022/09/24 05:41:20;;;;;;;17.90;15.23;;;16.10;97.30;;;;;;5074548;28;20020;-72
2022/09/24 05:43:45;;;;;;;18.95;15.77;;;16.10;97.40;;;;;;5074909;28;20036;-73
2022/09/24 05:46:11;;;;;;;18.58;15.70;;;16.00;97.30;;;;;;5074906;28;20024;-72
2022/09/24 05:48:37;;;;;;;18.20;15.65;;;16.10;97.20;;;;;;5075235;28;20033;-72
2022/09/24 05:51:04;;;;;;;18.92;15.20;;;16.00;97.20;;;;;;5074876;28;20501;-72
2022/09/24 05:53:30;;;;;;;17.90;14.88;;;16.00;97.30;;;;;;5074929;28;20036;-72
2022/09/24 05:55:57;;;;;;;18.42;15.82;;;16.00;97.50;;;;;;5075104;28;20024;-72
2022/09/24 05:58:23;;;;;;;18.35;14.65;;;16.00;97.30;;;;;;5075032;28;20095;-72
2022/09/24 06:00:49;;;;;;;16.55;13.68;;;16.00;97.30;;;;;;5074860;28;20024;-72
2022/09/24 06:03:16;;;;;;;15.85;14.07;;;16.00;97.30;;;;;;5074569;28;20380;-72
2022/09/24 06:05:47;;;;;;;16.85;13.80;;;16.00;97.30;;;;;;5074551;28;20024;-73
2022/09/24 06:08:16;;;;;;;15.85;13.20;;;16.00;97.30;;;;;;5074204;28;20064;-72
2022/09/24 06:10:44;;;;;;;16.05;13.65;;;16.00;97.30;;;;;;5074506;28;20028;-72
2022/09/24 06:13:13;;;;;;;15.73;13.27;;;16.00;97.40;;;;;;5074702;28;20029;-72
2022/09/24 06:15:40;;;;;;;15.02;13.25;;;16.00;97.30;;;;;;5074461;28;20027;-72
2022/09/24 06:18:07;;;;;;;15.02;12.23;;;16.00;97.30;;;;;;5074604;28;20103;-72
2022/09/24 06:20:33;;;;;;;17.08;14.15;;;16.00;97.30;;;;;;5074326;28;20024;-72
2022/09/24 06:22:59;;;;;;;17.70;13.80;;;16.00;97.30;;;;;;5074531;28;20028;-73
2022/09/24 06:25:25;;;;;;;16.13;12.95;;;16.00;97.40;;;;;;5074091;28;20391;-73
2022/09/24 06:28:01;;;;;;;20.42;13.55;;;16.00;97.40;;;;;;5073822;28;20052;-73
2022/09/24 06:30:35;;;;;;;17.83;14.85;;;16.00;97.50;;;;;;5074271;28;20049;-72
2022/09/24 06:33:05;;;;;;;16.75;14.13;;;16.00;97.50;;;;;;5074411;28;20387;-72
2022/09/24 06:35:39;;;;;;;19.33;13.15;;;16.00;97.50;;;;;;5073894;28;20028;-72
2022/09/24 06:38:09;;;;;;;17.77;15.52;;;16.00;97.50;;;;;;5074179;28;20052;-73
2022/09/24 06:40:34;;;;;;;18.63;14.32;;;16.00;97.50;;;;;;5074224;28;20029;-73
2022/09/24 06:43:00;;;;;;;16.05;13.57;;;16.00;97.50;;;;;;5073588;28;20626;-73
2022/09/24 06:45:27;;;;;;;14.82;13.13;;;16.00;97.60;;;;;;5073943;28;20068;-73
2022/09/24 06:47:57;;;;;;;15.75;13.35;;;16.00;97.50;;;;;;5073591;28;20391;-73
2022/09/24 06:50:26;;;;;;;13.27;11.45;;;16.00;97.50;;;;;;5073578;28;20031;-73
2022/09/24 06:52:52;;;;;;;15.10;12.40;;;16.00;97.50;;;;;;5073137;28;20059;-73
2022/09/24 06:55:18;;;;;;;16.40;13.75;;;16.10;97.50;;;;;;5073756;28;20024;-73
2022/09/24 06:57:44;;;;;;;18.42;14.48;;;16.10;97.50;;;;;;5073431;28;20027;-72
2022/09/24 07:00:11;;;;;;;15.70;14.00;;;16.10;97.50;;;;;;5073632;28;20027;-73
2022/09/24 07:02:37;;;;;;;16.98;14.68;;;16.10;97.50;;;;;;5072702;28;20124;-73
2022/09/24 07:05:03;;;;;;;16.50;14.70;;;16.10;97.60;;;;;;5073493;28;20099;-73
2022/09/24 07:07:30;;;;;;;20.52;16.33;;;16.10;97.60;;;;;;5073565;28;20035;-73
2022/09/24 07:09:56;;;;;;;19.40;15.70;;;16.00;97.60;;;;;;5073713;28;20028;-73
2022/09/24 07:12:22;;;;;;;18.30;15.00;;;16.00;97.60;;;;;;5073396;28;20107;-73
2022/09/24 07:14:48;;;;;;;20.15;16.33;;;16.00;97.60;;;;;;5073422;28;20021;-73
2022/09/24 07:17:14;;;;;;;17.73;15.23;;;16.00;97.50;;;;;;5073254;28;20025;-73
2022/09/24 07:19:40;;;;;;;17.50;15.32;;;16.00;97.60;;;;;;5073235;28;20486;-73
2022/09/24 07:22:05;;;;;;;16.92;14.95;;;16.00;97.60;;;;;;5073617;28;20035;-73
2022/09/24 07:24:31;;;;;;;19.10;16.02;;;16.00;97.60;;;;;;5073379;28;20028;-73
2022/09/24 07:26:57;;;;;;;17.65;15.27;;;16.00;97.70;;;;;;5073387;28;20024;-73
2022/09/24 07:29:22;;;;;;;19.13;16.25;;;16.00;97.80;;;;;;5073016;28;20048;-73
2022/09/24 07:31:48;;;;;;;19.50;15.35;;;16.00;97.80;;;;;;5073075;28;20108;-73
2022/09/24 07:34:14;;;;;;;19.50;15.80;;;16.00;97.80;;;;;;5073088;28;20380;-72
2022/09/24 07:36:40;;;;;;;17.17;14.88;;;16.00;97.80;;;;;;5073406;28;20480;-72
2022/09/24 07:39:05;;;;;;;20.70;16.00;;;16.00;97.80;;;;;;5073068;28;20024;-72
2022/09/24 07:41:32;;;;;;;19.95;15.07;;;16.00;97.80;;;;;;5073365;28;20035;-72
2022/09/24 07:43:58;;;;;;;19.95;16.90;;;16.10;97.80;;;;;;5073309;28;20032;-72
2022/09/24 07:46:24;;;;;;;18.90;15.23;;;16.00;97.90;;;;;;5073020;28;20082;-73
2022/09/24 07:48:56;;;;;;;18.98;16.10;;;16.00;98.10;;;;;;5072783;28;20111;-73
2022/09/24 07:51:26;;;;;;;17.45;14.55;;;16.00;98.10;;;;;;5073103;28;20040;-73
2022/09/24 07:53:52;;;;;;;19.23;14.52;;;16.00;98.00;;;;;;5073092;28;20040;-73
2022/09/24 07:56:20;;;;;;;19.33;16.20;;;16.00;98.00;;;;;;5073047;28;20028;-73
2022/09/24 07:58:52;;;;;;;20.58;15.60;;;16.00;98.30;;;;;;5073101;28;20029;-73
2022/09/24 08:01:18;;;;;;;19.45;15.82;;;16.00;98.00;;;;;;5072346;28;20431;-73
2022/09/24 08:03:47;;;;;;;19.45;15.15;;;16.00;98.20;;;;;;5073155;28;20086;-73
2022/09/24 08:06:12;;;;;;;19.60;14.75;;;16.00;98.30;;;;;;5076668;28;20024;-73
2022/09/24 08:08:38;;;;;;;18.52;15.65;;;16.00;98.30;;;;;;5076665;28;20122;-73
2022/09/24 08:11:05;;;;;;;17.13;14.70;;;16.00;98.40;;;;;;5077005;28;20024;-73
2022/09/24 08:13:33;;;;;;;17.88;15.35;;;15.90;98.60;;;;;;5076769;28;20064;-73
2022/09/24 08:15:59;;;;;;;18.98;16.13;;;15.90;98.50;;;;;;5076355;28;20025;-73
2022/09/24 08:18:26;;;;;;;16.52;14.73;;;15.90;98.50;;;;;;5076841;28;20025;-73
2022/09/24 08:20:51;;;;;;;17.05;15.23;;;15.90;98.50;;;;;;5076851;28;20107;-73
2022/09/24 08:23:20;;;;;;;18.90;15.43;;;15.90;98.50;;;;;;5076488;28;20666;-73
2022/09/24 08:25:46;;;;;;;20.35;15.00;;;15.90;98.50;;;;;;5076460;28;20020;-72
2022/09/24 08:28:15;;;;;;;18.25;16.30;;;15.90;98.50;;;;;;5075812;28;20048;-73
2022/09/24 08:30:42;;;;;;;15.70;14.02;;;15.90;98.60;;;;;;5076292;28;20567;-73
2022/09/24 08:33:09;;;;;;;15.60;13.60;;;15.90;98.70;;;;;;5076547;28;20039;-73
2022/09/24 08:35:35;;;;;;;17.77;14.20;;;16.00;98.60;;;;;;5076325;28;20046;-73
2022/09/24 08:38:02;;;;;;;16.23;14.30;;;15.90;98.50;;;;;;5075940;28;20487;-73
2022/09/24 08:40:32;;;;;;;17.10;14.85;;;15.90;98.50;;;;;;5075909;28;20051;-73
2022/09/24 08:43:31;;;;;;;17.80;14.82;;;15.90;98.50;;;;;;5076052;28;20067;-73
2022/09/24 08:48:50;;;;;;;18.27;15.43;;;15.90;98.40;;;;;;5076042;28;20094;-72
2022/09/24 08:51:19;;;;;;;19.33;15.95;;;15.90;98.40;;;;;;5075934;28;20434;-72
2022/09/24 08:53:57;;;;;;;18.63;15.00;;;15.90;98.50;;;;;;5076169;28;20028;-72
2022/09/24 08:56:28;;;;;;;16.75;14.43;;;15.90;98.50;;;;;;5075924;28;20040;-73
2022/09/24 08:59:02;;;;;;;16.45;14.73;;;15.90;98.60;;;;;;5075669;28;20507;-73
2022/09/24 09:01:50;;;;;;;20.83;15.15;;;15.90;98.70;;;;;;5075664;28;20506;-73
2022/09/24 09:04:40;;;;;;;17.90;14.45;;;15.90;98.70;;;;;;5075859;28;20460;-73
2022/09/24 09:07:37;;;;;;;20.70;16.10;;;16.00;98.70;;;;;;5075562;28;20033;-73
2022/09/24 09:10:09;;;;;;;18.85;16.10;;;16.00;98.70;;;;;;5039141;28;20043;-73
2022/09/24 09:12:39;;;;;;;18.45;15.60;;;16.00;98.70;;;;;;5075671;28;20016;-73
2022/09/24 09:15:15;;;;;;;18.15;15.65;;;16.00;98.70;;;;;;5075893;28;20029;-73
2022/09/24 09:17:46;;;;;;;17.25;14.48;;;16.00;98.80;;;;;;5074269;28;20491;-73
2022/09/24 09:20:20;;;;;;;17.52;14.35;;;16.00;98.80;;;;;;5075666;28;20036;-73
2022/09/24 09:22:52;;;;;;;15.82;13.32;;;16.00;98.80;;;;;;5075663;28;20025;-73
2022/09/24 09:25:27;;;;;;;18.05;15.10;;;16.00;98.70;;;;;;5075346;28;20475;-73
2022/09/24 09:28:14;;;;;;;14.23;12.73;;;16.00;98.70;;;;;;5075100;28;20048;-72
2022/09/24 09:31:05;;;;;;;16.08;13.05;;;16.00;98.70;;;;;;5075409;28;20402;-73
2022/09/24 09:33:45;;;;;;;15.40;12.50;;;16.00;98.60;;;;;;5055703;28;20510;-73
2022/09/24 09:36:29;;;;;;;14.32;12.15;;;16.00;98.70;;;;;;5075242;28;20037;-73
2022/09/24 09:39:07;;;;;;;14.50;12.27;;;16.00;98.60;;;;;;5075426;28;20028;-73
2022/09/24 09:41:55;;;;;;;18.20;12.85;;;16.00;98.60;;;;;;5075305;28;20028;-73
2022/09/24 09:44:26;;;;;;;14.65;12.50;;;15.90;98.60;;;;;;5074944;28;20475;-73
2022/09/24 09:47:16;;;;;;;14.23;12.70;;;15.90;98.60;;;;;;5075104;28;20028;-73
2022/09/24 09:49:44;;;;;;;14.35;12.35;;;16.00;98.70;;;;;;5074692;28;20037;-73
2022/09/24 09:52:20;;;;;;;14.85;12.00;;;15.90;98.70;;;;;;5074916;28;20111;-73
2022/09/24 09:54:47;;;;;;;11.90;10.63;;;15.90;98.60;;;;;;5074966;28;20028;-73
2022/09/24 09:57:20;;;;;;;13.60;11.73;;;16.00;98.80;;;;;;5074992;28;20384;-73
2022/09/24 09:59:50;;;;;;;13.27;11.80;;;16.00;98.60;;;;;;5074642;28;20078;-73
2022/09/24 10:02:34;;;;;;;15.95;13.70;;;16.00;98.60;;;;;;5074617;28;20025;-73
2022/09/24 10:05:17;;;;;;;12.65;11.35;;;16.00;98.70;;;;;;5074753;28;20036;-73
2022/09/24 10:07:45;;;;;;;16.05;12.95;;;16.00;98.80;;;;;;5074481;28;20083;-72
2022/09/24 10:10:14;;;;;;;17.08;13.30;;;16.10;98.90;;;;;;5074434;28;20085;-72
2022/09/24 10:12:39;;;;;;;14.88;11.82;;;16.00;99.00;;;;;;5074390;28;20387;-72
2022/09/24 10:15:14;;;;;;;15.90;13.07;;;16.10;99.10;;;;;;5074369;28;20025;-72
2022/09/24 10:17:41;;;;;;;15.80;13.93;;;16.10;99.10;;;;;;5074243;28;20026;-72
2022/09/24 10:20:32;;;;;;;16.50;13.38;;;16.10;99.00;;;;;;5074338;28;20032;-73
2022/09/24 10:23:06;;;;;;;18.08;13.48;;;16.00;98.90;;;;;;5073914;28;20021;-73
2022/09/24 10:25:35;;;;;;;15.00;13.23;;;16.00;99.10;;;;;;5074244;28;20032;-73
2022/09/24 10:31:00;;;;;;;13.40;11.40;;;16.10;98.80;;;;;;5074358;28;20074;-73
2022/09/24 10:33:34;;;;;;;16.65;13.57;;;16.10;98.80;;;;;;5073884;28;20082;-73
2022/09/24 10:36:06;;;;;;;16.92;13.07;;;16.10;98.70;;;;;;5074185;28;20029;-73
2022/09/24 10:38:32;;;;;;;14.65;12.90;;;16.10;98.70;;;;;;5073897;28;20032;-73
2022/09/24 10:40:59;;;;;;;14.90;12.05;;;16.10;98.60;;;;;;5073794;28;20459;-72
2022/09/24 10:43:25;;;;;;;18.90;14.65;;;16.10;98.70;;;;;;5073901;28;20039;-73
2022/09/24 10:46:00;;;;;;;18.42;14.85;;;16.10;98.70;;;;;;5073598;28;20380;-73
2022/09/24 10:48:28;;;;;;;14.57;12.40;;;16.20;98.80;;;;;;5073816;28;20079;-73
2022/09/24 10:51:05;;;;;;;16.98;14.73;;;16.10;98.70;;;;;;5073983;28;20053;-73
2022/09/24 10:53:49;;;;;;;19.40;14.63;;;16.10;98.70;;;;;;5074005;28;20032;-73
2022/09/24 10:56:33;;;;;;;19.58;15.02;;;16.10;98.70;;;;;;5073909;28;20031;-73
2022/09/24 10:59:15;;;;;;;16.58;13.80;;;16.10;98.80;;;;;;5073875;28;20368;-73
2022/09/24 11:02:24;;;;;;;14.90;13.30;;;16.10;98.80;;;;;;5073496;28;20064;-73
2022/09/24 11:05:06;;;;;;;16.42;13.60;;;16.00;98.80;;;;;;5053830;28;20427;-73
2022/09/24 11:08:02;;;;;;;15.18;13.30;;;16.00;98.90;;;;;;5073247;28;20115;-73
2022/09/24 11:10:41;;;;;;;17.67;14.30;;;16.10;98.90;;;;;;5073768;28;20032;-73
2022/09/24 11:13:26;;;;;;;15.82;14.15;;;16.10;98.90;;;;;;5073507;28;20020;-73
2022/09/24 11:16:16;;;;;;;18.95;15.55;;;16.10;98.90;;;;;;5072875;28;20025;-73
2022/09/24 11:19:04;;;;;;;14.95;13.13;;;16.00;98.90;;;;;;5073409;28;20024;-72
2022/09/24 11:21:35;;;;;;;16.83;13.60;;;16.00;98.90;;;;;;5073174;28;20078;-72
2022/09/24 11:24:29;;;;;;;14.68;13.00;;;16.00;98.80;;;;;;5073132;28;20020;-73
2022/09/24 11:27:42;;;;;;;16.70;14.25;;;16.10;98.90;;;;;;5073371;28;20036;-73
2022/09/24 11:30:08;;;;;;;17.90;15.50;;;16.10;98.80;;;;;;5073304;28;20045;-72
2022/09/24 11:33:05;;;;;;;16.23;13.27;;;16.10;98.80;;;;;;5073048;28;20102;-72
2022/09/24 11:35:49;;;;;;;14.95;13.05;;;16.10;99.00;;;;;;5073464;28;20361;-72
2022/09/24 11:38:34;;;;;;;17.40;13.98;;;16.10;98.90;;;;;;5072976;28;20017;-73
2022/09/24 11:41:26;;;;;;;20.55;15.60;;;16.10;98.80;;;;;;5072523;28;20047;-73
2022/09/24 11:43:55;;;;;;;18.67;14.70;;;16.10;98.80;;;;;;5073298;28;20103;-72
2022/09/24 11:46:36;;;;;;;17.17;14.50;;;16.20;98.90;;;;;;5072932;28;20402;-72
2022/09/24 11:49:43;;;;;;;22.25;14.90;;;16.10;98.80;;;;;;5073016;28;20398;-72
2022/09/24 11:52:26;;;;;;;18.13;14.93;;;16.20;98.80;;;;;;5058803;28;20472;-72
2022/09/24 11:55:04;;;;;;;19.92;15.00;;;16.20;98.80;;;;;;5073002;28;20036;-72
2022/09/24 11:57:36;;;;;;;16.40;13.90;;;16.20;98.80;;;;;;5072915;28;20484;-72
2022/09/24 12:00:11;;;;;;;17.02;13.15;;;16.20;98.80;;;;;;5072998;28;20115;-72
2022/09/24 12:02:58;;;;;;;16.33;14.25;;;16.20;98.80;;;;;;5073116;28;20025;-73
2022/09/24 12:05:32;;;;;;;15.95;13.63;;;16.20;98.80;;;;;;5072768;28;20035;-72
2022/09/24 12:08:17;;;;;;;14.05;12.55;;;16.30;98.80;;;;;;5072781;28;20177;-73
2022/09/24 12:11:03;;;;;;;16.60;14.07;;;16.20;98.80;;;;;;5072426;28;20029;-72
2022/09/24 12:14:03;;;;;;;17.48;12.65;;;16.30;98.80;;;;;;5072783;28;20032;-72
2022/09/24 12:16:35;;;;;;;15.45;13.85;;;16.30;98.80;;;;;;5035445;28;20026;-72
2022/09/24 12:19:37;;;;;;;15.80;13.18;;;16.30;98.70;;;;;;5072439;28;20170;-72
2022/09/24 12:22:05;;;;;;;15.57;12.95;;;16.30;98.80;;;;;;5049796;28;20041;-72
2022/09/24 12:24:43;;;;;;;16.30;13.10;;;16.30;98.80;;;;;;5072480;28;20396;-73
2022/09/24 12:27:15;;;;;;;16.00;12.55;;;16.30;98.80;;;;;;5072608;28;20122;-73
2022/09/24 12:32:55;;;;;;;13.77;12.18;;;16.30;98.70;;;;;;5072643;28;20058;-73
2022/09/24 12:35:27;;;;;;;14.95;10.95;;;16.40;98.70;;;;;;5072339;28;20042;-73
2022/09/24 12:38:04;;;;;;;16.77;12.88;;;16.30;98.70;;;;;;5072727;28;20364;-72
2022/09/24 12:40:51;;;;;;;17.35;13.23;;;16.30;98.70;;;;;;5072530;28;20028;-72
2022/09/24 12:43:28;;;;;;;14.82;11.23;;;16.30;98.60;;;;;;5072280;28;20439;-72
2022/09/24 12:45:57;;;;;;;14.48;12.50;;;16.20;98.50;;;;;;5072268;28;20089;-72
2022/09/24 12:48:24;;;;;;;16.77;13.98;;;16.20;98.50;;;;;;5072292;28;20491;-72
2022/09/24 12:51:00;;;;;;;13.40;11.88;;;16.20;98.70;;;;;;5072281;28;20033;-72
2022/09/24 12:53:35;;;;;;;12.73;11.40;;;16.20;98.90;;;;;;5076271;28;20025;-72
2022/09/24 12:56:02;;;;;;;16.45;13.18;;;16.20;99.20;;;;;;5076135;28;20062;-72
2022/09/24 12:58:44;;;;;;;18.30;14.93;;;16.20;99.00;;;;;;5076032;28;20033;-72
2022/09/24 13:01:31;;;;;;;15.43;13.80;;;16.20;99.20;;;;;;5075703;28;20029;-72
2022/09/24 13:04:15;;;;;;;17.27;14.30;;;16.20;99.20;;;;;;5075865;28;20486;-72